sensor_id;sensor_type;location;lat;lon;timestamp;P1;durP1;ratioP1;P2;durP2;ratioP2
77322;SDS011;66384;51.052;9.850;2024-01-25T00:02:18;15.30;;;3.10;;
77322;SDS011;66384;51.052;9.850;2024-01-25T00:04:55;11.00;;;3.20;;
77322;SDS011;66384;51.052;9.850;2024-01-25T00:07:32;14.40;;;4.30;;
77322;SDS011;66384;51.052;9.850;2024-01-25T00:10:18;19.90;;;4.00;;
77322;SDS011;66384;51.052;9.850;2024-01-25T00:12:54;16.50;;;4.50;;
77322;SDS011;66384;51.052;9.850;2024-01-25T00:15:30;13.20;;;3.60;;
77322;SDS011;66384;51.052;9.850;2024-01-25T00:18:06;8.60;;;3.40;;
77322;SDS011;66384;51.052;9.850;2024-01-25T00:20:43;19.80;;;3.40;;
77322;SDS011;66384;51.052;9.850;2024-01-25T00:23:19;11.00;;;3.20;;
77322;SDS011;66384;51.052;9.850;2024-01-25T00:25:56;14.70;;;3.50;;
77322;SDS011;66384;51.052;9.850;2024-01-25T00:28:33;11.10;;;2.80;;
77322;SDS011;66384;51.052;9.850;2024-01-25T00:31:09;13.20;;;4.20;;
77322;SDS011;66384;51.052;9.850;2024-01-25T00:33:46;9.40;;;3.80;;
77322;SDS011;66384;51.052;9.850;2024-01-25T00:36:23;9.30;;;3.40;;
77322;SDS011;66384;51.052;9.850;2024-01-25T00:39:01;16.90;;;3.60;;
77322;SDS011;66384;51.052;9.850;2024-01-25T00:41:38;9.70;;;2.80;;
77322;SDS011;66384;51.052;9.850;2024-01-25T00:44:17;10.20;;;3.20;;
77322;SDS011;66384;51.052;9.850;2024-01-25T00:46:55;12.70;;;3.20;;
77322;SDS011;66384;51.052;9.850;2024-01-25T00:49:32;11.00;;;2.90;;
77322;SDS011;66384;51.052;9.850;2024-01-25T00:52:10;12.50;;;3.30;;
77322;SDS011;66384;51.052;9.850;2024-01-25T00:54:48;15.90;;;3.00;;
77322;SDS011;66384;51.052;9.850;2024-01-25T00:57:25;12.30;;;3.60;;
77322;SDS011;66384;51.052;9.850;2024-01-25T01:00:03;14.00;;;3.60;;
77322;SDS011;66384;51.052;9.850;2024-01-25T01:02:42;15.70;;;3.40;;
77322;SDS011;66384;51.052;9.850;2024-01-25T01:05:20;9.10;;;2.60;;
77322;SDS011;66384;51.052;9.850;2024-01-25T01:07:58;15.70;;;4.00;;
77322;SDS011;66384;51.052;9.850;2024-01-25T01:10:35;20.50;;;3.40;;
77322;SDS011;66384;51.052;9.850;2024-01-25T01:13:11;9.90;;;3.40;;
77322;SDS011;66384;51.052;9.850;2024-01-25T01:15:48;16.20;;;4.30;;
77322;SDS011;66384;51.052;9.850;2024-01-25T01:18:24;12.80;;;4.60;;
77322;SDS011;66384;51.052;9.850;2024-01-25T01:21:01;13.40;;;3.40;;
77322;SDS011;66384;51.052;9.850;2024-01-25T01:23:38;19.30;;;4.60;;
77322;SDS011;66384;51.052;9.850;2024-01-25T01:26:14;17.70;;;3.20;;
77322;SDS011;66384;51.052;9.850;2024-01-25T01:28:51;11.80;;;3.10;;
77322;SDS011;66384;51.052;9.850;2024-01-25T01:31:27;15.40;;;3.70;;
77322;SDS011;66384;51.052;9.850;2024-01-25T01:34:03;14.10;;;4.60;;
77322;SDS011;66384;51.052;9.850;2024-01-25T01:36:40;19.90;;;4.40;;
77322;SDS011;66384;51.052;9.850;2024-01-25T01:39:16;18.50;;;3.80;;
77322;SDS011;66384;51.052;9.850;2024-01-25T01:41:53;12.80;;;4.50;;
77322;SDS011;66384;51.052;9.850;2024-01-25T01:44:29;15.90;;;4.30;;
77322;SDS011;66384;51.052;9.850;2024-01-25T01:47:05;19.60;;;4.60;;
77322;SDS011;66384;51.052;9.850;2024-01-25T01:49:42;15.60;;;3.40;;
77322;SDS011;66384;51.052;9.850;2024-01-25T01:52:19;14.90;;;3.40;;
77322;SDS011;66384;51.052;9.850;2024-01-25T01:54:56;14.20;;;3.00;;
77322;SDS011;66384;51.052;9.850;2024-01-25T01:57:33;16.40;;;4.50;;
77322;SDS011;66384;51.052;9.850;2024-01-25T02:00:10;12.20;;;4.00;;
77322;SDS011;66384;51.052;9.850;2024-01-25T02:02:48;16.10;;;4.60;;
77322;SDS011;66384;51.052;9.850;2024-01-25T02:05:25;16.20;;;3.90;;
77322;SDS011;66384;51.052;9.850;2024-01-25T02:08:01;11.90;;;3.80;;
77322;SDS011;66384;51.052;9.850;2024-01-25T02:10:39;11.90;;;3.00;;
77322;SDS011;66384;51.052;9.850;2024-01-25T02:15:49;17.20;;;4.40;;
77322;SDS011;66384;51.052;9.850;2024-01-25T02:18:26;16.60;;;3.80;;
77322;SDS011;66384;51.052;9.850;2024-01-25T02:21:02;9.60;;;3.40;;
77322;SDS011;66384;51.052;9.850;2024-01-25T02:23:39;14.80;;;2.90;;
77322;SDS011;66384;51.052;9.850;2024-01-25T02:28:49;16.40;;;3.90;;
77322;SDS011;66384;51.052;9.850;2024-01-25T02:31:26;14.30;;;3.30;;
77322;SDS011;66384;51.052;9.850;2024-01-25T02:34:03;11.70;;;3.10;;
77322;SDS011;66384;51.052;9.850;2024-01-25T02:36:39;12.40;;;4.50;;
77322;SDS011;66384;51.052;9.850;2024-01-25T02:39:16;14.80;;;4.50;;
77322;SDS011;66384;51.052;9.850;2024-01-25T02:41:52;14.20;;;4.20;;
77322;SDS011;66384;51.052;9.850;2024-01-25T02:44:28;11.00;;;3.80;;
77322;SDS011;66384;51.052;9.850;2024-01-25T02:47:04;23.30;;;5.20;;
77322;SDS011;66384;51.052;9.850;2024-01-25T02:49:41;19.30;;;4.20;;
77322;SDS011;66384;51.052;9.850;2024-01-25T02:52:17;17.60;;;5.50;;
77322;SDS011;66384;51.052;9.850;2024-01-25T02:54:54;12.50;;;4.00;;
77322;SDS011;66384;51.052;9.850;2024-01-25T02:57:30;16.70;;;4.40;;
77322;SDS011;66384;51.052;9.850;2024-01-25T03:00:08;16.10;;;4.30;;
77322;SDS011;66384;51.052;9.850;2024-01-25T03:02:45;11.80;;;4.20;;
77322;SDS011;66384;51.052;9.850;2024-01-25T03:05:21;21.70;;;5.70;;
77322;SDS011;66384;51.052;9.850;2024-01-25T03:07:58;15.70;;;4.30;;
77322;SDS011;66384;51.052;9.850;2024-01-25T03:10:35;11.40;;;3.50;;
77322;SDS011;66384;51.052;9.850;2024-01-25T03:13:11;16.60;;;4.50;;
77322;SDS011;66384;51.052;9.850;2024-01-25T03:15:47;14.30;;;4.50;;
77322;SDS011;66384;51.052;9.850;2024-01-25T03:18:24;17.40;;;4.30;;
77322;SDS011;66384;51.052;9.850;2024-01-25T03:21:00;13.70;;;3.90;;
77322;SDS011;66384;51.052;9.850;2024-01-25T03:23:37;19.60;;;5.30;;
77322;SDS011;66384;51.052;9.850;2024-01-25T03:26:13;15.20;;;4.20;;
77322;SDS011;66384;51.052;9.850;2024-01-25T03:28:49;23.90;;;4.70;;
77322;SDS011;66384;51.052;9.850;2024-01-25T03:31:26;18.60;;;5.60;;
77322;SDS011;66384;51.052;9.850;2024-01-25T03:34:02;11.90;;;3.80;;
77322;SDS011;66384;51.052;9.850;2024-01-25T03:36:39;22.10;;;4.50;;
77322;SDS011;66384;51.052;9.850;2024-01-25T03:39:16;14.70;;;4.90;;
77322;SDS011;66384;51.052;9.850;2024-01-25T03:41:52;18.30;;;3.80;;
77322;SDS011;66384;51.052;9.850;2024-01-25T03:44:29;8.70;;;3.40;;
77322;SDS011;66384;51.052;9.850;2024-01-25T03:47:05;13.20;;;3.80;;
77322;SDS011;66384;51.052;9.850;2024-01-25T03:49:42;18.40;;;4.40;;
77322;SDS011;66384;51.052;9.850;2024-01-25T03:52:19;12.20;;;3.60;;
77322;SDS011;66384;51.052;9.850;2024-01-25T03:54:56;11.10;;;3.60;;
77322;SDS011;66384;51.052;9.850;2024-01-25T04:00:08;16.70;;;4.10;;
77322;SDS011;66384;51.052;9.850;2024-01-25T04:02:46;12.90;;;4.00;;
77322;SDS011;66384;51.052;9.850;2024-01-25T04:05:22;15.60;;;3.60;;
77322;SDS011;66384;51.052;9.850;2024-01-25T04:07:59;17.90;;;4.30;;
77322;SDS011;66384;51.052;9.850;2024-01-25T04:10:36;22.10;;;5.30;;
77322;SDS011;66384;51.052;9.850;2024-01-25T04:13:13;22.20;;;4.30;;
77322;SDS011;66384;51.052;9.850;2024-01-25T04:15:50;15.50;;;3.70;;
77322;SDS011;66384;51.052;9.850;2024-01-25T04:18:26;15.10;;;3.70;;
77322;SDS011;66384;51.052;9.850;2024-01-25T04:21:03;20.40;;;4.20;;
77322;SDS011;66384;51.052;9.850;2024-01-25T04:23:40;18.20;;;4.10;;
77322;SDS011;66384;51.052;9.850;2024-01-25T04:26:16;18.60;;;5.80;;
77322;SDS011;66384;51.052;9.850;2024-01-25T04:28:53;11.90;;;3.20;;
77322;SDS011;66384;51.052;9.850;2024-01-25T04:31:29;18.50;;;4.20;;
77322;SDS011;66384;51.052;9.850;2024-01-25T04:34:05;12.30;;;3.40;;
77322;SDS011;66384;51.052;9.850;2024-01-25T04:36:42;18.20;;;3.60;;
77322;SDS011;66384;51.052;9.850;2024-01-25T04:39:18;15.00;;;4.50;;
77322;SDS011;66384;51.052;9.850;2024-01-25T04:44:29;15.90;;;3.60;;
77322;SDS011;66384;51.052;9.850;2024-01-25T04:47:06;11.20;;;3.30;;
77322;SDS011;66384;51.052;9.850;2024-01-25T04:49:43;17.30;;;4.10;;
77322;SDS011;66384;51.052;9.850;2024-01-25T04:52:20;22.50;;;5.40;;
77322;SDS011;66384;51.052;9.850;2024-01-25T04:54:57;19.40;;;4.40;;
77322;SDS011;66384;51.052;9.850;2024-01-25T04:57:33;11.80;;;3.60;;
77322;SDS011;66384;51.052;9.850;2024-01-25T05:00:10;12.10;;;3.30;;
77322;SDS011;66384;51.052;9.850;2024-01-25T05:02:48;13.90;;;3.80;;
77322;SDS011;66384;51.052;9.850;2024-01-25T05:05:24;15.30;;;6.10;;
77322;SDS011;66384;51.052;9.850;2024-01-25T05:08:01;15.90;;;4.30;;
77322;SDS011;66384;51.052;9.850;2024-01-25T05:10:38;20.20;;;5.10;;
77322;SDS011;66384;51.052;9.850;2024-01-25T05:13:15;15.60;;;4.50;;
77322;SDS011;66384;51.052;9.850;2024-01-25T05:15:52;17.20;;;5.00;;
77322;SDS011;66384;51.052;9.850;2024-01-25T05:18:28;11.40;;;4.00;;
77322;SDS011;66384;51.052;9.850;2024-01-25T05:21:05;16.20;;;5.40;;
77322;SDS011;66384;51.052;9.850;2024-01-25T05:23:41;23.00;;;5.00;;
77322;SDS011;66384;51.052;9.850;2024-01-25T05:26:18;14.10;;;4.10;;
77322;SDS011;66384;51.052;9.850;2024-01-25T05:28:54;16.20;;;5.80;;
77322;SDS011;66384;51.052;9.850;2024-01-25T05:31:31;13.20;;;3.70;;
77322;SDS011;66384;51.052;9.850;2024-01-25T05:34:08;6.50;;;2.40;;
77322;SDS011;66384;51.052;9.850;2024-01-25T05:36:44;14.00;;;3.90;;
77322;SDS011;66384;51.052;9.850;2024-01-25T05:39:21;16.90;;;3.00;;
77322;SDS011;66384;51.052;9.850;2024-01-25T05:41:57;10.20;;;3.70;;
77322;SDS011;66384;51.052;9.850;2024-01-25T05:44:33;9.10;;;2.90;;
77322;SDS011;66384;51.052;9.850;2024-01-25T05:47:10;9.30;;;2.90;;
77322;SDS011;66384;51.052;9.850;2024-01-25T05:49:46;18.30;;;3.90;;
77322;SDS011;66384;51.052;9.850;2024-01-25T05:52:23;17.30;;;4.60;;
77322;SDS011;66384;51.052;9.850;2024-01-25T05:55:00;20.10;;;5.10;;
77322;SDS011;66384;51.052;9.850;2024-01-25T05:57:37;14.80;;;5.00;;
77322;SDS011;66384;51.052;9.850;2024-01-25T06:00:16;15.00;;;4.00;;
77322;SDS011;66384;51.052;9.850;2024-01-25T06:05:26;14.00;;;3.90;;
77322;SDS011;66384;51.052;9.850;2024-01-25T06:08:03;13.20;;;4.00;;
77322;SDS011;66384;51.052;9.850;2024-01-25T06:10:40;10.30;;;3.80;;
77322;SDS011;66384;51.052;9.850;2024-01-25T06:13:16;14.30;;;4.70;;
77322;SDS011;66384;51.052;9.850;2024-01-25T06:15:52;11.50;;;2.60;;
77322;SDS011;66384;51.052;9.850;2024-01-25T06:18:29;18.20;;;4.00;;
77322;SDS011;66384;51.052;9.850;2024-01-25T06:21:06;15.90;;;5.10;;
77322;SDS011;66384;51.052;9.850;2024-01-25T06:23:42;13.20;;;3.80;;
77322;SDS011;66384;51.052;9.850;2024-01-25T06:26:18;10.70;;;4.20;;
77322;SDS011;66384;51.052;9.850;2024-01-25T06:28:54;13.40;;;4.30;;
77322;SDS011;66384;51.052;9.850;2024-01-25T06:31:31;13.70;;;5.40;;
77322;SDS011;66384;51.052;9.850;2024-01-25T06:34:12;12.60;;;5.10;;
77322;SDS011;66384;51.052;9.850;2024-01-25T06:36:49;21.00;;;7.30;;
77322;SDS011;66384;51.052;9.850;2024-01-25T06:39:25;22.10;;;6.90;;
77322;SDS011;66384;51.052;9.850;2024-01-25T06:42:02;18.90;;;6.80;;
77322;SDS011;66384;51.052;9.850;2024-01-25T06:44:39;18.10;;;5.80;;
77322;SDS011;66384;51.052;9.850;2024-01-25T06:47:15;23.70;;;6.20;;
77322;SDS011;66384;51.052;9.850;2024-01-25T06:49:53;13.30;;;4.90;;
77322;SDS011;66384;51.052;9.850;2024-01-25T06:52:29;15.70;;;4.20;;
77322;SDS011;66384;51.052;9.850;2024-01-25T06:55:06;12.40;;;3.30;;
77322;SDS011;66384;51.052;9.850;2024-01-25T06:57:43;18.70;;;6.00;;
77322;SDS011;66384;51.052;9.850;2024-01-25T07:00:20;16.20;;;5.90;;
77322;SDS011;66384;51.052;9.850;2024-01-25T07:05:31;9.70;;;3.60;;
77322;SDS011;66384;51.052;9.850;2024-01-25T07:08:07;14.50;;;3.40;;
77322;SDS011;66384;51.052;9.850;2024-01-25T07:10:45;10.20;;;2.70;;
77322;SDS011;66384;51.052;9.850;2024-01-25T07:13:22;12.10;;;3.30;;
77322;SDS011;66384;51.052;9.850;2024-01-25T07:15:59;6.20;;;2.80;;
77322;SDS011;66384;51.052;9.850;2024-01-25T07:18:35;11.60;;;2.80;;
77322;SDS011;66384;51.052;9.850;2024-01-25T07:21:12;15.30;;;6.10;;
77322;SDS011;66384;51.052;9.850;2024-01-25T07:23:48;12.10;;;4.80;;
77322;SDS011;66384;51.052;9.850;2024-01-25T07:26:24;14.30;;;2.90;;
77322;SDS011;66384;51.052;9.850;2024-01-25T07:29:01;10.60;;;3.40;;
77322;SDS011;66384;51.052;9.850;2024-01-25T07:31:37;11.60;;;3.70;;
77322;SDS011;66384;51.052;9.850;2024-01-25T07:34:14;14.30;;;5.30;;
77322;SDS011;66384;51.052;9.850;2024-01-25T07:36:50;11.50;;;5.40;;
77322;SDS011;66384;51.052;9.850;2024-01-25T07:39:27;15.20;;;4.00;;
77322;SDS011;66384;51.052;9.850;2024-01-25T07:42:03;16.40;;;3.90;;
77322;SDS011;66384;51.052;9.850;2024-01-25T07:44:40;14.40;;;3.20;;
77322;SDS011;66384;51.052;9.850;2024-01-25T07:47:16;13.40;;;3.10;;
77322;SDS011;66384;51.052;9.850;2024-01-25T07:49:52;12.70;;;3.30;;
77322;SDS011;66384;51.052;9.850;2024-01-25T07:52:29;13.90;;;3.70;;
77322;SDS011;66384;51.052;9.850;2024-01-25T07:55:05;13.20;;;3.30;;
77322;SDS011;66384;51.052;9.850;2024-01-25T08:00:16;13.80;;;4.50;;
77322;SDS011;66384;51.052;9.850;2024-01-25T08:02:52;13.00;;;4.60;;
77322;SDS011;66384;51.052;9.850;2024-01-25T08:05:29;10.80;;;2.70;;
77322;SDS011;66384;51.052;9.850;2024-01-25T08:08:17;14.60;;;2.80;;
77322;SDS011;66384;51.052;9.850;2024-01-25T08:10:53;14.70;;;3.10;;
77322;SDS011;66384;51.052;9.850;2024-01-25T08:13:29;11.60;;;3.20;;
77322;SDS011;66384;51.052;9.850;2024-01-25T08:16:08;10.30;;;3.40;;
77322;SDS011;66384;51.052;9.850;2024-01-25T08:18:50;15.00;;;3.00;;
77322;SDS011;66384;51.052;9.850;2024-01-25T08:21:27;15.90;;;4.00;;
77322;SDS011;66384;51.052;9.850;2024-01-25T08:24:04;14.60;;;3.60;;
77322;SDS011;66384;51.052;9.850;2024-01-25T08:26:40;17.20;;;3.80;;
77322;SDS011;66384;51.052;9.850;2024-01-25T08:29:16;15.10;;;4.10;;
77322;SDS011;66384;51.052;9.850;2024-01-25T08:31:53;11.80;;;2.80;;
77322;SDS011;66384;51.052;9.850;2024-01-25T08:34:29;15.00;;;3.80;;
77322;SDS011;66384;51.052;9.850;2024-01-25T08:37:05;18.00;;;6.70;;
77322;SDS011;66384;51.052;9.850;2024-01-25T08:39:42;13.90;;;5.00;;
77322;SDS011;66384;51.052;9.850;2024-01-25T08:42:21;11.40;;;3.00;;
77322;SDS011;66384;51.052;9.850;2024-01-25T08:44:57;13.40;;;4.70;;
77322;SDS011;66384;51.052;9.850;2024-01-25T08:47:35;14.40;;;4.20;;
77322;SDS011;66384;51.052;9.850;2024-01-25T08:50:12;12.50;;;3.40;;
77322;SDS011;66384;51.052;9.850;2024-01-25T08:52:50;10.50;;;3.10;;
77322;SDS011;66384;51.052;9.850;2024-01-25T08:55:26;9.40;;;2.90;;
77322;SDS011;66384;51.052;9.850;2024-01-25T08:58:03;15.50;;;4.80;;
77322;SDS011;66384;51.052;9.850;2024-01-25T09:00:40;28.30;;;8.90;;
77322;SDS011;66384;51.052;9.850;2024-01-25T09:03:17;41.30;;;15.60;;
77322;SDS011;66384;51.052;9.850;2024-01-25T09:05:53;31.90;;;10.70;;
77322;SDS011;66384;51.052;9.850;2024-01-25T09:08:36;26.90;;;9.10;;
77322;SDS011;66384;51.052;9.850;2024-01-25T09:11:12;25.70;;;9.00;;
77322;SDS011;66384;51.052;9.850;2024-01-25T09:13:49;17.30;;;7.90;;
77322;SDS011;66384;51.052;9.850;2024-01-25T09:16:25;22.30;;;6.60;;
77322;SDS011;66384;51.052;9.850;2024-01-25T09:19:01;15.20;;;6.80;;
77322;SDS011;66384;51.052;9.850;2024-01-25T09:21:40;15.10;;;5.90;;
77322;SDS011;66384;51.052;9.850;2024-01-25T09:24:16;11.60;;;4.00;;
77322;SDS011;66384;51.052;9.850;2024-01-25T09:26:53;13.30;;;3.90;;
77322;SDS011;66384;51.052;9.850;2024-01-25T09:29:29;13.20;;;5.10;;
77322;SDS011;66384;51.052;9.850;2024-01-25T09:32:06;10.10;;;2.90;;
77322;SDS011;66384;51.052;9.850;2024-01-25T09:34:43;13.70;;;5.00;;
77322;SDS011;66384;51.052;9.850;2024-01-25T09:37:19;11.50;;;5.10;;
77322;SDS011;66384;51.052;9.850;2024-01-25T09:39:56;19.20;;;7.40;;
77322;SDS011;66384;51.052;9.850;2024-01-25T09:42:35;25.90;;;8.10;;
77322;SDS011;66384;51.052;9.850;2024-01-25T09:45:11;18.60;;;6.20;;
77322;SDS011;66384;51.052;9.850;2024-01-25T09:47:52;11.90;;;6.30;;
77322;SDS011;66384;51.052;9.850;2024-01-25T09:50:29;16.00;;;6.60;;
77322;SDS011;66384;51.052;9.850;2024-01-25T09:53:08;18.90;;;5.20;;
77322;SDS011;66384;51.052;9.850;2024-01-25T09:55:52;22.40;;;7.60;;
77322;SDS011;66384;51.052;9.850;2024-01-25T09:58:36;13.20;;;4.60;;
77322;SDS011;66384;51.052;9.850;2024-01-25T10:01:15;14.20;;;7.10;;
77322;SDS011;66384;51.052;9.850;2024-01-25T10:03:52;17.70;;;8.90;;
77322;SDS011;66384;51.052;9.850;2024-01-25T10:06:29;13.10;;;5.00;;
77322;SDS011;66384;51.052;9.850;2024-01-25T10:09:06;13.70;;;5.10;;
77322;SDS011;66384;51.052;9.850;2024-01-25T10:11:44;21.80;;;9.00;;
77322;SDS011;66384;51.052;9.850;2024-01-25T10:14:39;24.70;;;10.10;;
77322;SDS011;66384;51.052;9.850;2024-01-25T10:17:15;9.40;;;5.10;;
77322;SDS011;66384;51.052;9.850;2024-01-25T10:19:51;14.60;;;4.90;;
77322;SDS011;66384;51.052;9.850;2024-01-25T10:22:28;14.80;;;6.80;;
77322;SDS011;66384;51.052;9.850;2024-01-25T10:25:05;12.60;;;5.00;;
77322;SDS011;66384;51.052;9.850;2024-01-25T10:27:48;15.80;;;6.00;;
77322;SDS011;66384;51.052;9.850;2024-01-25T10:30:24;11.40;;;4.40;;
77322;SDS011;66384;51.052;9.850;2024-01-25T10:33:04;7.20;;;3.30;;
77322;SDS011;66384;51.052;9.850;2024-01-25T10:35:42;9.90;;;3.40;;
77322;SDS011;66384;51.052;9.850;2024-01-25T10:38:21;13.40;;;3.40;;
77322;SDS011;66384;51.052;9.850;2024-01-25T10:41:00;11.30;;;2.90;;
77322;SDS011;66384;51.052;9.850;2024-01-25T10:43:37;15.60;;;4.60;;
77322;SDS011;66384;51.052;9.850;2024-01-25T10:46:14;13.40;;;3.90;;
77322;SDS011;66384;51.052;9.850;2024-01-25T10:48:50;9.80;;;4.00;;
77322;SDS011;66384;51.052;9.850;2024-01-25T10:51:30;24.50;;;5.60;;
77322;SDS011;66384;51.052;9.850;2024-01-25T10:54:08;20.80;;;5.10;;
77322;SDS011;66384;51.052;9.850;2024-01-25T10:59:19;18.00;;;3.60;;
77322;SDS011;66384;51.052;9.850;2024-01-25T11:01:58;12.00;;;4.00;;
77322;SDS011;66384;51.052;9.850;2024-01-25T11:04:36;19.50;;;4.70;;
77322;SDS011;66384;51.052;9.850;2024-01-25T11:07:13;12.30;;;2.80;;
77322;SDS011;66384;51.052;9.850;2024-01-25T11:09:49;12.00;;;3.20;;
77322;SDS011;66384;51.052;9.850;2024-01-25T11:12:27;12.50;;;3.40;;
77322;SDS011;66384;51.052;9.850;2024-01-25T11:15:09;10.40;;;4.10;;
77322;SDS011;66384;51.052;9.850;2024-01-25T11:17:53;6.90;;;3.40;;
77322;SDS011;66384;51.052;9.850;2024-01-25T11:20:30;9.40;;;3.40;;
77322;SDS011;66384;51.052;9.850;2024-01-25T11:23:08;10.20;;;3.20;;
77322;SDS011;66384;51.052;9.850;2024-01-25T11:25:48;9.40;;;3.30;;
77322;SDS011;66384;51.052;9.850;2024-01-25T11:28:28;11.00;;;4.10;;
77322;SDS011;66384;51.052;9.850;2024-01-25T11:31:06;12.00;;;3.90;;
77322;SDS011;66384;51.052;9.850;2024-01-25T11:33:43;16.60;;;4.20;;
77322;SDS011;66384;51.052;9.850;2024-01-25T11:36:22;14.60;;;3.80;;
77322;SDS011;66384;51.052;9.850;2024-01-25T11:39:00;12.20;;;3.10;;
77322;SDS011;66384;51.052;9.850;2024-01-25T11:41:36;20.60;;;3.80;;
77322;SDS011;66384;51.052;9.850;2024-01-25T11:44:14;12.60;;;2.80;;
77322;SDS011;66384;51.052;9.850;2024-01-25T11:46:56;9.30;;;4.20;;
77322;SDS011;66384;51.052;9.850;2024-01-25T11:49:32;13.40;;;4.80;;
77322;SDS011;66384;51.052;9.850;2024-01-25T11:52:11;16.30;;;3.70;;
77322;SDS011;66384;51.052;9.850;2024-01-25T11:54:47;12.60;;;3.40;;
77322;SDS011;66384;51.052;9.850;2024-01-25T11:57:23;9.40;;;4.00;;
77322;SDS011;66384;51.052;9.850;2024-01-25T12:00:00;15.00;;;3.50;;
77322;SDS011;66384;51.052;9.850;2024-01-25T12:02:38;11.50;;;4.00;;
77322;SDS011;66384;51.052;9.850;2024-01-25T12:07:49;22.30;;;5.20;;
77322;SDS011;66384;51.052;9.850;2024-01-25T12:10:25;14.20;;;5.50;;
77322;SDS011;66384;51.052;9.850;2024-01-25T12:13:02;10.90;;;4.00;;
77322;SDS011;66384;51.052;9.850;2024-01-25T12:15:40;13.70;;;3.20;;
77322;SDS011;66384;51.052;9.850;2024-01-25T12:18:17;11.10;;;3.60;;
77322;SDS011;66384;51.052;9.850;2024-01-25T12:23:32;16.90;;;5.00;;
77322;SDS011;66384;51.052;9.850;2024-01-25T12:26:10;16.50;;;5.70;;
77322;SDS011;66384;51.052;9.850;2024-01-25T12:28:48;22.00;;;6.50;;
77322;SDS011;66384;51.052;9.850;2024-01-25T12:31:24;8.50;;;3.40;;
77322;SDS011;66384;51.052;9.850;2024-01-25T12:34:01;11.30;;;3.80;;
77322;SDS011;66384;51.052;9.850;2024-01-25T12:36:47;16.60;;;4.10;;
77322;SDS011;66384;51.052;9.850;2024-01-25T12:39:25;11.80;;;4.80;;
77322;SDS011;66384;51.052;9.850;2024-01-25T12:42:01;15.70;;;6.20;;
77322;SDS011;66384;51.052;9.850;2024-01-25T12:44:38;15.40;;;4.40;;
77322;SDS011;66384;51.052;9.850;2024-01-25T12:47:16;11.10;;;4.00;;
77322;SDS011;66384;51.052;9.850;2024-01-25T12:49:53;18.80;;;5.00;;
77322;SDS011;66384;51.052;9.850;2024-01-25T12:52:32;20.20;;;6.10;;
77322;SDS011;66384;51.052;9.850;2024-01-25T12:55:09;10.70;;;3.80;;
77322;SDS011;66384;51.052;9.850;2024-01-25T12:57:45;10.30;;;4.00;;
77322;SDS011;66384;51.052;9.850;2024-01-25T13:00:24;12.90;;;3.80;;
77322;SDS011;66384;51.052;9.850;2024-01-25T13:03:01;16.60;;;4.10;;
77322;SDS011;66384;51.052;9.850;2024-01-25T13:05:38;14.00;;;4.50;;
77322;SDS011;66384;51.052;9.850;2024-01-25T13:08:15;10.70;;;3.70;;
77322;SDS011;66384;51.052;9.850;2024-01-25T13:10:51;9.00;;;3.50;;
77322;SDS011;66384;51.052;9.850;2024-01-25T13:13:27;15.40;;;4.00;;
77322;SDS011;66384;51.052;9.850;2024-01-25T13:16:04;11.20;;;4.00;;
77322;SDS011;66384;51.052;9.850;2024-01-25T13:18:41;10.70;;;4.10;;
77322;SDS011;66384;51.052;9.850;2024-01-25T13:21:18;43.00;;;16.80;;
77322;SDS011;66384;51.052;9.850;2024-01-25T13:23:55;12.00;;;4.10;;
77322;SDS011;66384;51.052;9.850;2024-01-25T13:26:32;10.80;;;4.00;;
77322;SDS011;66384;51.052;9.850;2024-01-25T13:29:09;11.40;;;3.90;;
77322;SDS011;66384;51.052;9.850;2024-01-25T13:31:46;12.50;;;3.20;;
77322;SDS011;66384;51.052;9.850;2024-01-25T13:34:22;8.80;;;3.00;;
77322;SDS011;66384;51.052;9.850;2024-01-25T13:36:59;13.00;;;3.60;;
77322;SDS011;66384;51.052;9.850;2024-01-25T13:39:35;16.40;;;3.60;;
77322;SDS011;66384;51.052;9.850;2024-01-25T13:42:12;13.00;;;4.80;;
77322;SDS011;66384;51.052;9.850;2024-01-25T13:44:48;14.60;;;5.00;;
77322;SDS011;66384;51.052;9.850;2024-01-25T13:47:24;12.70;;;4.40;;
77322;SDS011;66384;51.052;9.850;2024-01-25T13:50:02;16.20;;;3.80;;
77322;SDS011;66384;51.052;9.850;2024-01-25T13:55:12;18.80;;;3.40;;
77322;SDS011;66384;51.052;9.850;2024-01-25T13:57:49;15.40;;;4.50;;
77322;SDS011;66384;51.052;9.850;2024-01-25T14:00:25;9.90;;;5.00;;
77322;SDS011;66384;51.052;9.850;2024-01-25T14:03:02;13.50;;;4.10;;
77322;SDS011;66384;51.052;9.850;2024-01-25T14:05:39;16.50;;;5.40;;
77322;SDS011;66384;51.052;9.850;2024-01-25T14:08:16;9.30;;;3.20;;
77322;SDS011;66384;51.052;9.850;2024-01-25T14:10:52;12.90;;;4.30;;
77322;SDS011;66384;51.052;9.850;2024-01-25T14:13:28;12.40;;;4.00;;
77322;SDS011;66384;51.052;9.850;2024-01-25T14:16:06;16.70;;;5.90;;
77322;SDS011;66384;51.052;9.850;2024-01-25T14:21:23;21.70;;;6.40;;
77322;SDS011;66384;51.052;9.850;2024-01-25T14:23:59;11.60;;;4.40;;
77322;SDS011;66384;51.052;9.850;2024-01-25T14:26:35;19.60;;;5.20;;
77322;SDS011;66384;51.052;9.850;2024-01-25T14:29:13;15.70;;;7.00;;
77322;SDS011;66384;51.052;9.850;2024-01-25T14:31:49;15.30;;;5.90;;
77322;SDS011;66384;51.052;9.850;2024-01-25T14:34:26;24.70;;;9.50;;
77322;SDS011;66384;51.052;9.850;2024-01-25T14:37:02;18.50;;;6.90;;
77322;SDS011;66384;51.052;9.850;2024-01-25T14:39:39;19.80;;;9.20;;
77322;SDS011;66384;51.052;9.850;2024-01-25T14:42:36;20.20;;;9.80;;
77322;SDS011;66384;51.052;9.850;2024-01-25T14:45:12;19.80;;;7.50;;
77322;SDS011;66384;51.052;9.850;2024-01-25T14:47:49;25.40;;;12.10;;
77322;SDS011;66384;51.052;9.850;2024-01-25T14:50:25;43.30;;;20.00;;
77322;SDS011;66384;51.052;9.850;2024-01-25T14:53:03;43.60;;;15.80;;
77322;SDS011;66384;51.052;9.850;2024-01-25T14:55:40;30.50;;;12.80;;
77322;SDS011;66384;51.052;9.850;2024-01-25T15:00:53;33.10;;;15.20;;
77322;SDS011;66384;51.052;9.850;2024-01-25T15:03:30;34.20;;;14.20;;
77322;SDS011;66384;51.052;9.850;2024-01-25T15:06:06;32.00;;;13.50;;
77322;SDS011;66384;51.052;9.850;2024-01-25T15:08:43;32.60;;;13.20;;
77322;SDS011;66384;51.052;9.850;2024-01-25T15:11:19;27.50;;;12.40;;
77322;SDS011;66384;51.052;9.850;2024-01-25T15:13:55;21.70;;;8.40;;
77322;SDS011;66384;51.052;9.850;2024-01-25T15:16:32;24.90;;;10.70;;
77322;SDS011;66384;51.052;9.850;2024-01-25T15:19:11;22.20;;;9.50;;
77322;SDS011;66384;51.052;9.850;2024-01-25T15:21:48;27.00;;;10.60;;
77322;SDS011;66384;51.052;9.850;2024-01-25T15:24:24;24.20;;;8.40;;
77322;SDS011;66384;51.052;9.850;2024-01-25T15:27:02;20.40;;;8.20;;
77322;SDS011;66384;51.052;9.850;2024-01-25T15:29:40;59.70;;;29.20;;
77322;SDS011;66384;51.052;9.850;2024-01-25T15:32:16;32.40;;;13.10;;
77322;SDS011;66384;51.052;9.850;2024-01-25T15:34:53;18.40;;;9.10;;
77322;SDS011;66384;51.052;9.850;2024-01-25T15:37:30;17.70;;;7.50;;
77322;SDS011;66384;51.052;9.850;2024-01-25T15:40:08;29.20;;;9.10;;
77322;SDS011;66384;51.052;9.850;2024-01-25T15:42:49;26.60;;;7.80;;
77322;SDS011;66384;51.052;9.850;2024-01-25T15:45:26;18.30;;;6.30;;
77322;SDS011;66384;51.052;9.850;2024-01-25T15:48:04;16.50;;;6.00;;
77322;SDS011;66384;51.052;9.850;2024-01-25T15:50:40;13.80;;;5.20;;
77322;SDS011;66384;51.052;9.850;2024-01-25T15:53:17;17.80;;;4.70;;
77322;SDS011;66384;51.052;9.850;2024-01-25T15:55:53;15.20;;;4.50;;
77322;SDS011;66384;51.052;9.850;2024-01-25T15:58:31;8.50;;;4.80;;
77322;SDS011;66384;51.052;9.850;2024-01-25T16:01:07;25.90;;;10.10;;
77322;SDS011;66384;51.052;9.850;2024-01-25T16:03:44;21.40;;;10.20;;
77322;SDS011;66384;51.052;9.850;2024-01-25T16:06:21;24.00;;;10.90;;
77322;SDS011;66384;51.052;9.850;2024-01-25T16:08:58;18.90;;;8.30;;